createdAt,value
2018-05-08T00:00:15.709Z,13.40
2018-05-08T00:02:45.585Z,13.40
2018-05-08T00:05:11.748Z,13.40
2018-05-08T00:07:37.818Z,13.30
2018-05-08T00:10:04.920Z,13.30
2018-05-08T00:12:32.262Z,13.30
2018-05-08T00:14:59.366Z,13.30
2018-05-08T00:17:27.442Z,13.60
2018-05-08T00:19:54.628Z,13.30
2018-05-08T00:22:21.424Z,13.20
2018-05-08T00:24:47.477Z,13.20
2018-05-08T00:27:13.951Z,13.20
2018-05-08T00:29:40.059Z,13.20
2018-05-08T00:32:07.100Z,13.10
2018-05-08T00:34:35.220Z,13.00
2018-05-08T00:37:02.288Z,13.10
2018-05-08T00:39:28.344Z,13.10
2018-05-08T00:41:56.121Z,13.00
2018-05-08T00:44:22.948Z,13.00
2018-05-08T00:46:49.809Z,13.00
2018-05-08T00:49:16.627Z,13.10
2018-05-08T00:51:42.740Z,13.00
2018-05-08T00:54:08.902Z,13.00
2018-05-08T00:56:35.927Z,13.00
2018-05-08T00:59:02.020Z,13.00
2018-05-08T01:01:29.091Z,13.00
2018-05-08T01:03:56.940Z,12.90
2018-05-08T01:06:22.983Z,12.90
2018-05-08T01:08:49.136Z,12.90
2018-05-08T01:11:15.283Z,12.80
2018-05-08T01:13:41.371Z,12.80
2018-05-08T01:16:07.439Z,12.80
2018-05-08T01:18:35.593Z,12.80
2018-05-08T01:21:02.455Z,12.70
2018-05-08T01:23:28.533Z,12.70
2018-05-08T01:25:54.595Z,12.60
2018-05-08T01:28:20.656Z,12.60
2018-05-08T01:30:46.910Z,12.50
2018-05-08T01:33:13.076Z,12.50
2018-05-08T01:35:39.101Z,12.50
2018-05-08T01:38:08.047Z,12.40
2018-05-08T01:40:34.830Z,12.40
2018-05-08T01:43:01.652Z,12.40
2018-05-08T01:45:28.449Z,12.40
2018-05-08T01:47:54.519Z,12.40
2018-05-08T01:50:20.597Z,12.40
2018-05-08T01:52:46.780Z,12.40
2018-05-08T01:55:13.609Z,12.40
2018-05-08T01:57:39.692Z,12.50
2018-05-08T02:00:05.784Z,12.40
2018-05-08T02:02:32.564Z,12.20
2018-05-08T02:04:58.747Z,12.30
2018-05-08T02:07:25.571Z,12.20
2018-05-08T02:09:51.802Z,12.20
2018-05-08T02:12:18.881Z,12.20
2018-05-08T02:14:44.978Z,12.10
2018-05-08T02:17:11.037Z,12.20
2018-05-08T02:19:37.101Z,12.20
2018-05-08T02:22:03.442Z,12.20
2018-05-08T02:24:29.623Z,12.20
2018-05-08T02:26:55.748Z,12.20
2018-05-08T02:29:21.858Z,12.20
2018-05-08T02:31:48.643Z,12.20
2018-05-08T02:34:14.728Z,12.20
2018-05-08T02:36:42.617Z,12.10
2018-05-08T02:39:13.617Z,12.20
2018-05-08T02:41:40.407Z,12.20
2018-05-08T02:44:07.544Z,12.20
2018-05-08T02:46:33.691Z,12.10
2018-05-08T02:49:03.769Z,12.20
2018-05-08T02:51:30.547Z,12.10
2018-05-08T02:54:00.345Z,12.00
2018-05-08T02:56:26.400Z,12.00
2018-05-08T02:58:53.508Z,12.00
2018-05-08T03:01:22.402Z,12.00
2018-05-08T03:03:49.532Z,12.00
2018-05-08T03:06:20.523Z,12.00
2018-05-08T03:08:46.574Z,12.00
2018-05-08T03:11:12.618Z,12.00
2018-05-08T03:13:41.568Z,11.90
2018-05-08T03:16:09.730Z,11.80
2018-05-08T03:18:36.872Z,11.80
2018-05-08T03:21:04.019Z,11.80
2018-05-08T03:23:30.099Z,11.80
2018-05-08T03:25:57.045Z,11.80
2018-05-08T03:28:26.870Z,11.80
2018-05-08T03:30:54.821Z,11.80
2018-05-08T03:33:21.695Z,11.90
2018-05-08T03:35:48.499Z,11.80
2018-05-08T03:38:18.878Z,11.80
2018-05-08T03:40:46.110Z,11.80
2018-05-08T03:43:12.260Z,11.80
2018-05-08T03:45:38.307Z,11.80
2018-05-08T03:48:04.494Z,11.80
2018-05-08T03:50:36.069Z,11.80
2018-05-08T03:53:02.163Z,11.70
2018-05-08T03:55:31.079Z,11.80
2018-05-08T03:57:57.125Z,11.80
2018-05-08T04:00:35.479Z,11.80
2018-05-08T04:03:15.945Z,11.70
2018-05-08T04:05:54.895Z,11.90
2018-05-08T04:08:33.172Z,11.90
2018-05-08T04:10:59.332Z,11.90
2018-05-08T04:13:28.269Z,12.00
2018-05-08T04:15:54.373Z,11.90
2018-05-08T04:18:21.511Z,12.10
2018-05-08T04:20:47.557Z,12.10
2018-05-08T04:23:14.616Z,12.20
2018-05-08T04:25:40.770Z,12.20
2018-05-08T04:28:07.544Z,12.20
2018-05-08T04:30:33.635Z,12.20
2018-05-08T04:33:00.446Z,12.30
2018-05-08T04:35:27.497Z,12.30
2018-05-08T04:37:53.556Z,12.30
2018-05-08T04:40:20.431Z,12.50
2018-05-08T04:42:47.231Z,12.50
2018-05-08T04:45:13.383Z,12.50
2018-05-08T04:47:42.214Z,12.60
2018-05-08T04:50:08.243Z,12.60
2018-05-08T04:52:34.396Z,12.60
2018-05-08T04:55:00.573Z,12.80
2018-05-08T04:57:30.878Z,12.80
2018-05-08T04:59:57.679Z,12.90
2018-05-08T05:02:26.965Z,12.90
2018-05-08T05:04:56.463Z,13.10
2018-05-08T05:07:22.551Z,13.50
2018-05-08T05:09:49.391Z,14.40
2018-05-08T05:12:16.146Z,14.70
2018-05-08T05:14:42.327Z,14.70
2018-05-08T05:17:08.498Z,15.00
2018-05-08T05:19:38.831Z,15.50
2018-05-08T05:22:04.900Z,15.50
2018-05-08T05:24:32.082Z,15.60
2018-05-08T05:26:58.112Z,15.80
2018-05-08T05:29:24.891Z,16.40
2018-05-08T05:31:51.048Z,16.40
2018-05-08T05:34:17.135Z,16.40
2018-05-08T05:36:46.924Z,16.60
2018-05-08T05:39:14.819Z,16.80
2018-05-08T05:41:40.925Z,16.80
2018-05-08T05:44:08.009Z,17.00
2018-05-08T05:46:35.085Z,17.30
2018-05-08T05:49:01.170Z,17.60
2018-05-08T05:51:27.283Z,17.40
2018-05-08T05:53:54.080Z,17.60
2018-05-08T05:56:20.141Z,17.00
2018-05-08T05:58:46.308Z,18.00
2018-05-08T06:01:12.395Z,18.20
2018-05-08T06:03:39.182Z,18.60
2018-05-08T06:06:07.357Z,18.50
2018-05-08T06:08:33.568Z,18.90
2018-05-08T06:10:59.697Z,19.30
2018-05-08T06:13:26.795Z,19.40
2018-05-08T06:15:53.043Z,19.40
2018-05-08T06:18:19.971Z,20.10
2018-05-08T06:20:46.825Z,20.20
2018-05-08T06:23:12.963Z,20.20
2018-05-08T06:25:41.030Z,20.60
2018-05-08T06:28:08.119Z,20.90
2018-05-08T06:30:39.853Z,21.30
2018-05-08T06:33:05.920Z,21.30
2018-05-08T06:35:32.116Z,21.40
2018-05-08T06:37:58.186Z,21.00
2018-05-08T06:40:27.979Z,21.30
2018-05-08T06:42:54.297Z,21.60
2018-05-08T06:45:21.399Z,22.30
2018-05-08T06:47:47.580Z,22.60
2018-05-08T06:50:13.658Z,22.50
2018-05-08T06:52:40.497Z,22.80
2018-05-08T06:55:07.388Z,22.80
2018-05-08T06:57:33.568Z,23.10
2018-05-08T07:00:00.460Z,23.30
2018-05-08T07:02:26.584Z,23.20
2018-05-08T07:04:52.702Z,23.90
2018-05-08T07:07:18.780Z,23.80
2018-05-08T07:09:46.713Z,23.70
2018-05-08T07:12:12.922Z,23.70
2018-05-08T07:14:41.100Z,24.40
2018-05-08T07:17:07.268Z,24.90
2018-05-08T07:19:34.401Z,25.20
2018-05-08T07:22:00.697Z,25.10
2018-05-08T07:24:27.543Z,25.50
2018-05-08T07:26:54.618Z,25.40
2018-05-08T07:29:21.694Z,25.50
2018-05-08T07:31:48.804Z,24.90
2018-05-08T07:34:16.899Z,25.20
2018-05-08T07:36:43.102Z,25.60
2018-05-08T07:39:09.195Z,25.80
2018-05-08T07:41:39.909Z,26.00
2018-05-08T07:44:06.779Z,25.80
2018-05-08T07:46:33.132Z,25.80
2018-05-08T07:48:59.382Z,26.10
2018-05-08T07:51:26.863Z,26.90
2018-05-08T07:53:52.998Z,27.20
2018-05-08T07:56:19.856Z,27.80
2018-05-08T07:58:45.977Z,27.80
2018-05-08T08:01:12.853Z,27.50
2018-05-08T08:03:38.982Z,27.50
2018-05-08T08:06:05.121Z,27.50
2018-05-08T08:08:32.071Z,26.50
2018-05-08T08:10:58.447Z,26.50
2018-05-08T08:13:26.337Z,27.70
2018-05-08T08:15:52.461Z,27.70
2018-05-08T08:18:19.473Z,27.90
2018-05-08T08:20:45.516Z,27.90
2018-05-08T08:23:12.547Z,28.70
2018-05-08T08:25:38.598Z,28.70
2018-05-08T08:28:05.526Z,28.60
2018-05-08T08:30:32.956Z,27.90
2018-05-08T08:32:59.065Z,27.90
2018-05-08T08:35:26.213Z,28.00
2018-05-08T08:37:56.216Z,27.70
2018-05-08T08:40:26.840Z,27.90
2018-05-08T08:42:52.910Z,27.60
2018-05-08T08:45:19.030Z,27.90
2018-05-08T08:47:46.471Z,28.10
2018-05-08T08:50:15.755Z,27.60
2018-05-08T08:52:41.942Z,27.70
2018-05-08T08:55:08.737Z,28.10
2018-05-08T08:57:34.813Z,28.10
2018-05-08T09:00:01.956Z,28.50
2018-05-08T09:02:30.767Z,28.60
2018-05-08T09:04:57.553Z,28.30
2018-05-08T09:07:23.657Z,28.30
2018-05-08T09:09:54.248Z,27.90
2018-05-08T09:12:20.311Z,28.00
2018-05-08T09:14:46.540Z,27.40
2018-05-08T09:17:14.814Z,27.50
2018-05-08T09:19:41.005Z,28.10
2018-05-08T09:22:07.088Z,27.40
2018-05-08T09:24:34.263Z,27.50
2018-05-08T09:27:01.099Z,28.00
2018-05-08T09:29:28.970Z,28.20
2018-05-08T09:31:55.094Z,28.20
2018-05-08T09:34:22.756Z,28.60
2018-05-08T09:36:49.667Z,28.90
2018-05-08T09:39:15.831Z,28.90
2018-05-08T09:41:42.831Z,28.40
2018-05-08T09:44:08.987Z,28.40
2018-05-08T09:46:35.144Z,28.30
2018-05-08T09:49:02.152Z,29.10
2018-05-08T09:51:31.462Z,29.10
2018-05-08T09:53:57.784Z,29.00
2018-05-08T09:56:23.899Z,29.70
2018-05-08T09:58:49.994Z,29.70
2018-05-08T10:01:17.368Z,28.70
2018-05-08T10:03:44.546Z,28.40
2018-05-08T10:06:11.713Z,28.00
2018-05-08T10:08:37.869Z,28.40
2018-05-08T10:11:04.730Z,28.60
2018-05-08T10:13:34.626Z,28.60
2018-05-08T10:16:01.524Z,29.80
2018-05-08T10:18:27.706Z,29.70
2018-05-08T10:20:54.582Z,30.50
2018-05-08T10:23:22.755Z,30.40
2018-05-08T10:25:50.015Z,30.10
2018-05-08T10:28:18.185Z,29.80
2018-05-08T10:30:44.504Z,29.70
2018-05-08T10:33:11.664Z,29.60
2018-05-08T10:35:38.479Z,29.90
2018-05-08T10:38:06.369Z,29.80
2018-05-08T10:40:32.598Z,29.70
2018-05-08T10:42:59.946Z,29.10
2018-05-08T10:45:26.267Z,29.40
2018-05-08T10:47:53.128Z,29.40
2018-05-08T10:50:19.247Z,29.40
2018-05-08T10:52:45.682Z,29.20
2018-05-08T10:55:11.857Z,28.90
2018-05-08T10:57:37.952Z,29.00
2018-05-08T11:00:05.268Z,29.30
2018-05-08T11:02:31.449Z,30.10
2018-05-08T11:04:58.592Z,30.50
2018-05-08T11:07:24.655Z,29.10
2018-05-08T11:09:51.523Z,29.40
2018-05-08T11:12:19.621Z,29.30
2018-05-08T11:14:46.659Z,28.80
2018-05-08T11:17:13.792Z,28.60
2018-05-08T11:19:39.951Z,28.70
2018-05-08T11:22:07.093Z,28.90
2018-05-08T11:24:33.245Z,29.40
2018-05-08T11:26:59.438Z,30.40
2018-05-08T11:29:25.524Z,30.40
2018-05-08T11:31:52.819Z,29.40
2018-05-08T11:34:18.946Z,29.40
2018-05-08T11:36:46.978Z,29.90
2018-05-08T11:39:14.322Z,29.90
2018-05-08T11:41:40.620Z,29.80
2018-05-08T11:44:10.383Z,29.60
2018-05-08T11:46:37.305Z,29.90
2018-05-08T11:49:03.400Z,29.90
2018-05-08T11:51:29.607Z,30.40
2018-05-08T11:53:56.779Z,30.00
2018-05-08T11:56:22.896Z,30.20
2018-05-08T11:58:49.198Z,30.60
2018-05-08T12:01:16.393Z,30.70
2018-05-08T12:03:42.476Z,29.90
2018-05-08T12:06:10.002Z,30.10
2018-05-08T12:08:41.650Z,29.60
2018-05-08T12:11:07.936Z,29.60
2018-05-08T12:13:34.068Z,29.20
2018-05-08T12:16:00.486Z,29.60
2018-05-08T12:18:26.774Z,29.80
2018-05-08T12:20:55.332Z,30.00
2018-05-08T12:23:22.441Z,30.10
2018-05-08T12:25:48.753Z,30.10
2018-05-08T12:28:15.141Z,30.10
2018-05-08T12:30:42.584Z,30.20
2018-05-08T12:33:08.852Z,29.80
2018-05-08T12:35:35.355Z,29.60
2018-05-08T12:38:03.344Z,29.80
2018-05-08T12:40:30.540Z,29.70
2018-05-08T12:42:58.862Z,29.60
2018-05-08T12:45:24.879Z,29.80
2018-05-08T12:47:50.922Z,29.60
2018-05-08T12:50:16.985Z,29.60
2018-05-08T12:52:43.762Z,29.40
2018-05-08T12:55:09.873Z,29.40
2018-05-08T12:57:36.670Z,29.60
2018-05-08T13:00:02.847Z,29.60
2018-05-08T13:02:29.965Z,29.40
2018-05-08T13:04:58.931Z,29.30
2018-05-08T13:07:24.962Z,29.30
2018-05-08T13:09:52.038Z,29.30
2018-05-08T13:12:18.819Z,29.30
2018-05-08T13:14:46.005Z,29.30
2018-05-08T13:17:14.416Z,29.10
2018-05-08T13:19:42.336Z,28.90
2018-05-08T13:22:09.327Z,29.00
2018-05-08T13:24:36.540Z,29.00
2018-05-08T13:27:02.735Z,29.00
2018-05-08T13:29:28.802Z,28.60
2018-05-08T13:31:54.999Z,28.80
2018-05-08T13:34:22.908Z,28.60
2018-05-08T13:36:49.000Z,28.60
2018-05-08T13:39:15.053Z,28.30
2018-05-08T13:41:41.111Z,27.80
2018-05-08T13:44:08.897Z,27.60
2018-05-08T13:46:34.985Z,27.50
2018-05-08T13:49:02.031Z,28.00
2018-05-08T13:51:28.189Z,28.00
2018-05-08T13:53:54.380Z,28.20
2018-05-08T13:56:20.464Z,27.70
2018-05-08T13:58:47.667Z,27.90
2018-05-08T14:01:15.540Z,27.80
2018-05-08T14:03:43.391Z,27.70
2018-05-08T14:06:09.599Z,27.70
2018-05-08T14:08:35.696Z,27.70
2018-05-08T14:11:03.771Z,27.60
2018-05-08T14:13:29.895Z,27.40
2018-05-08T14:15:55.991Z,27.50
2018-05-08T14:18:23.866Z,27.10
2018-05-08T14:20:49.938Z,27.10
2018-05-08T14:23:16.079Z,27.10
2018-05-08T14:25:47.187Z,27.00
2018-05-08T14:28:13.332Z,27.30
2018-05-08T14:30:39.513Z,27.50
2018-05-08T14:33:06.444Z,27.10
2018-05-08T14:35:34.369Z,26.80
2018-05-08T14:38:03.366Z,26.90
2018-05-08T14:40:30.538Z,26.60
2018-05-08T14:42:56.825Z,26.60
2018-05-08T14:45:23.106Z,26.50
2018-05-08T14:47:49.288Z,26.80
2018-05-08T14:50:15.579Z,26.90
2018-05-08T14:52:42.601Z,26.80
2018-05-08T14:55:13.906Z,26.90
2018-05-08T14:57:40.085Z,26.90
2018-05-08T15:00:06.203Z,26.90
2018-05-08T15:02:33.266Z,26.60
2018-05-08T15:05:00.175Z,26.60
2018-05-08T15:07:26.301Z,26.60
2018-05-08T15:09:52.403Z,26.70
2018-05-08T15:12:19.643Z,26.60
2018-05-08T15:14:45.818Z,26.70
2018-05-08T15:17:13.856Z,26.60
2018-05-08T15:19:40.001Z,26.70
2018-05-08T15:22:06.142Z,26.50
2018-05-08T15:24:33.322Z,26.50
2018-05-08T15:27:01.123Z,26.60
2018-05-08T15:29:30.121Z,26.60
2018-05-08T15:31:57.340Z,26.50
2018-05-08T15:34:25.241Z,26.30
2018-05-08T15:36:52.322Z,26.30
2018-05-08T15:39:18.501Z,26.10
2018-05-08T15:41:44.839Z,26.10
2018-05-08T15:44:11.942Z,26.00
2018-05-08T15:46:39.193Z,25.90
2018-05-08T15:49:06.112Z,26.10
2018-05-08T15:51:32.220Z,26.10
2018-05-08T15:53:58.496Z,26.10
2018-05-08T15:56:26.169Z,26.00
2018-05-08T15:58:52.275Z,26.00
2018-05-08T16:01:18.359Z,25.80
2018-05-08T16:03:44.696Z,25.80
2018-05-08T16:06:10.782Z,25.80
2018-05-08T16:08:37.861Z,25.80
2018-05-08T16:11:03.999Z,25.70
2018-05-08T16:13:35.935Z,25.30
2018-05-08T16:16:02.039Z,25.30
2018-05-08T16:18:28.188Z,25.30
2018-05-08T16:20:56.346Z,25.40
2018-05-08T16:23:22.404Z,25.30
2018-05-08T16:25:48.531Z,25.20
2018-05-08T16:28:14.574Z,25.20
2018-05-08T16:30:44.315Z,25.20
2018-05-08T16:33:12.375Z,25.20
2018-05-08T16:35:38.514Z,25.20
2018-05-08T16:38:04.613Z,25.20
2018-05-08T16:40:30.864Z,25.00
2018-05-08T16:42:58.088Z,24.90
2018-05-08T16:45:24.956Z,24.90
2018-05-08T16:47:51.514Z,24.90
2018-05-08T16:50:17.684Z,24.80
2018-05-08T16:52:45.771Z,24.60
2018-05-08T16:55:13.973Z,24.80
2018-05-08T16:57:40.133Z,24.80
2018-05-08T17:00:06.207Z,24.70
2018-05-08T17:02:33.700Z,24.70
2018-05-08T17:04:59.947Z,24.70
2018-05-08T17:07:26.798Z,24.50
2018-05-08T17:09:53.738Z,24.40
2018-05-08T17:12:20.544Z,24.40
2018-05-08T17:14:46.771Z,24.40
2018-05-08T17:17:12.883Z,24.30
2018-05-08T17:19:38.961Z,24.20
2018-05-08T17:22:05.761Z,24.10
2018-05-08T17:24:32.997Z,24.00
2018-05-08T17:26:59.205Z,24.00
2018-05-08T17:29:25.288Z,23.90
2018-05-08T17:31:51.663Z,23.90
2018-05-08T17:34:18.829Z,23.80
2018-05-08T17:36:46.000Z,23.80
2018-05-08T17:39:12.269Z,23.70
2018-05-08T17:41:39.178Z,23.50
2018-05-08T17:44:05.244Z,23.50
2018-05-08T17:46:35.318Z,23.40
2018-05-08T17:49:04.703Z,23.40
2018-05-08T17:51:30.824Z,23.30
2018-05-08T17:53:57.966Z,23.30
2018-05-08T17:56:24.143Z,23.20
2018-05-08T17:58:50.314Z,23.20
2018-05-08T18:01:16.356Z,23.20
2018-05-08T18:03:42.402Z,23.10
2018-05-08T18:06:08.485Z,23.00
2018-05-08T18:08:34.982Z,22.90
2018-05-08T18:11:01.180Z,22.80
2018-05-08T18:13:28.171Z,22.80
2018-05-08T18:16:00.692Z,22.60
2018-05-08T18:18:32.530Z,22.50
2018-05-08T18:21:04.499Z,22.50
2018-05-08T18:23:43.454Z,22.40
2018-05-08T18:26:17.159Z,22.30
2018-05-08T18:28:48.408Z,22.20
2018-05-08T18:31:22.439Z,22.10
2018-05-08T18:33:48.860Z,22.10
2018-05-08T18:36:14.940Z,22.00
2018-05-08T18:38:43.091Z,22.00
2018-05-08T18:41:13.723Z,22.00
2018-05-08T18:43:46.410Z,21.90
2018-05-08T18:46:14.208Z,21.70
2018-05-08T18:48:41.237Z,21.70
2018-05-08T18:51:07.285Z,21.60
2018-05-08T18:53:33.349Z,21.50
2018-05-08T18:55:59.379Z,21.50
2018-05-08T18:58:25.440Z,21.30
2018-05-08T19:00:54.246Z,21.10
2018-05-08T19:03:21.075Z,21.00
2018-05-08T19:05:48.258Z,21.00
2018-05-08T19:08:15.379Z,20.90
2018-05-08T19:10:41.391Z,20.70
2018-05-08T19:13:13.054Z,20.60
2018-05-08T19:15:46.265Z,20.30
2018-05-08T19:18:13.101Z,19.80
2018-05-08T19:20:39.870Z,19.70
2018-05-08T19:23:05.985Z,19.50
2018-05-08T19:25:34.034Z,19.40
2018-05-08T19:28:07.093Z,19.10
2018-05-08T19:30:33.250Z,19.10
2018-05-08T19:33:00.022Z,18.80
2018-05-08T19:35:32.270Z,18.80
2018-05-08T19:38:03.442Z,18.70
2018-05-08T19:40:29.527Z,18.50
2018-05-08T19:43:00.276Z,18.50
2018-05-08T19:45:28.400Z,18.60
2018-05-08T19:47:54.492Z,18.60
2018-05-08T19:50:20.604Z,18.60
2018-05-08T19:52:47.417Z,18.40
2018-05-08T19:55:13.476Z,18.40
2018-05-08T19:57:39.515Z,18.30
2018-05-08T20:00:05.545Z,18.20
2018-05-08T20:02:31.651Z,17.90
2018-05-08T20:04:57.822Z,18.00
2018-05-08T20:07:27.242Z,18.10
2018-05-08T20:09:53.540Z,18.00
2018-05-08T20:12:19.619Z,17.90
2018-05-08T20:14:47.572Z,17.80
2018-05-08T20:17:15.719Z,17.80
2018-05-08T20:19:42.970Z,17.90
2018-05-08T20:22:15.632Z,18.00
2018-05-08T20:24:43.827Z,18.10
2018-05-08T20:27:14.562Z,18.10
2018-05-08T20:29:40.703Z,18.10
2018-05-08T20:32:10.411Z,18.00
2018-05-08T20:34:36.459Z,18.00
2018-05-08T20:37:03.265Z,18.00
2018-05-08T20:39:29.351Z,18.00
2018-05-08T20:41:55.500Z,18.10
2018-05-08T20:44:21.622Z,17.90
2018-05-08T20:46:47.737Z,17.80
2018-05-08T20:49:13.955Z,17.80
2018-05-08T20:51:39.996Z,17.70
2018-05-08T20:54:06.248Z,17.70
2018-05-08T20:56:32.408Z,17.60
2018-05-08T20:58:58.493Z,17.60
2018-05-08T21:01:28.187Z,17.50
2018-05-08T21:03:54.518Z,17.40
2018-05-08T21:06:21.679Z,17.50
2018-05-08T21:08:47.832Z,17.50
2018-05-08T21:11:13.964Z,17.50
2018-05-08T21:13:40.034Z,17.40
2018-05-08T21:16:08.142Z,17.50
2018-05-08T21:18:36.056Z,17.40
2018-05-08T21:21:02.889Z,17.20
2018-05-08T21:23:29.975Z,17.20
2018-05-08T21:25:56.061Z,17.20
2018-05-08T21:28:28.174Z,17.20
2018-05-08T21:31:01.376Z,17.20
2018-05-08T21:33:27.792Z,17.20
2018-05-08T21:35:54.717Z,17.10
2018-05-08T21:38:21.823Z,17.10
2018-05-08T21:40:47.942Z,17.10
2018-05-08T21:43:14.003Z,17.10
2018-05-08T21:45:40.508Z,17.00
2018-05-08T21:48:06.637Z,17.00
2018-05-08T21:50:35.968Z,17.00
2018-05-08T21:53:04.178Z,17.00
2018-05-08T21:55:30.288Z,17.00
2018-05-08T21:57:58.109Z,17.00
2018-05-08T22:00:25.155Z,16.90
2018-05-08T22:02:51.220Z,16.90
2018-05-08T22:05:18.026Z,16.90
2018-05-08T22:07:45.143Z,16.80
2018-05-08T22:10:11.187Z,16.80
2018-05-08T22:12:38.115Z,16.70
2018-05-08T22:15:04.222Z,16.70
2018-05-08T22:17:31.252Z,16.60
2018-05-08T22:19:58.231Z,16.60
2018-05-08T22:22:24.350Z,16.60
2018-05-08T22:24:50.441Z,16.60
2018-05-08T22:27:17.694Z,16.50
2018-05-08T22:29:44.647Z,16.50
2018-05-08T22:32:11.558Z,16.50
2018-05-08T22:34:42.856Z,16.50
2018-05-08T22:37:09.965Z,16.40
2018-05-08T22:39:37.040Z,16.40
2018-05-08T22:42:03.874Z,16.40
2018-05-08T22:44:31.968Z,16.50
2018-05-08T22:46:58.778Z,16.30
2018-05-08T22:49:27.037Z,16.30
2018-05-08T22:51:53.128Z,16.40
2018-05-08T22:54:19.244Z,16.30
2018-05-08T22:56:46.100Z,16.30
2018-05-08T22:59:16.099Z,16.20
2018-05-08T23:01:43.243Z,16.20
2018-05-08T23:04:11.351Z,16.10
2018-05-08T23:06:37.521Z,16.10
2018-05-08T23:09:04.676Z,16.10
2018-05-08T23:11:31.796Z,16.10
2018-05-08T23:13:58.921Z,16.10
2018-05-08T23:16:25.090Z,16.00
2018-05-08T23:18:52.260Z,16.00
2018-05-08T23:21:18.505Z,16.00
2018-05-08T23:23:44.710Z,15.90
2018-05-08T23:26:11.568Z,15.90
2018-05-08T23:28:38.465Z,15.90
2018-05-08T23:31:04.630Z,15.90
2018-05-08T23:33:31.494Z,15.80
2018-05-08T23:35:58.458Z,15.70
2018-05-08T23:38:25.499Z,15.80
2018-05-08T23:40:51.741Z,15.70
2018-05-08T23:43:18.683Z,15.70
2018-05-08T23:45:45.609Z,15.70
2018-05-08T23:48:11.728Z,15.70
2018-05-08T23:50:39.546Z,15.70
2018-05-08T23:53:05.768Z,15.70
2018-05-08T23:55:33.620Z,15.60
2018-05-08T23:57:59.749Z,15.60
